Time;durP1;ratioP1;P1;durP2;ratioP2;P2;SDS_P1;SDS_P2;PMS_P1;PMS_P2;Temp;Humidity;BMP_temperature;BMP_pressure;BME280_temperature;BME280_humidity;BME280_pressure;Samples;Min_cycle;Max_cycle;Signal;HPM_P1;HPM_P2
2023/08/12 00:00:24;;;;;;;6.43;4.15;;;15.90;92.20;;;;;;5007515;28;20146;-79
2023/08/12 00:02:51;;;;;;;9.23;3.33;;;16.00;92.00;;;;;;5005220;28;20045;-79
2023/08/12 00:05:18;;;;;;;6.82;4.10;;;16.00;91.90;;;;;;5006193;28;20057;-79
2023/08/12 00:07:45;;;;;;;7.05;3.90;;;16.00;91.80;;;;;;5008336;28;20104;-79
2023/08/12 00:10:12;;;;;;;9.70;4.03;;;16.00;91.80;;;;;;5025392;28;20058;-79
2023/08/12 00:12:39;;;;;;;13.63;4.63;;;16.00;92.00;;;;;;5010133;28;20049;-79
2023/08/12 00:15:09;;;;;;;9.98;3.60;;;16.00;92.10;;;;;;5028933;28;20055;-79
2023/08/12 00:17:37;;;;;;;5.85;3.78;;;15.90;92.00;;;;;;5010308;28;20053;-79
2023/08/12 00:20:10;;;;;;;6.10;3.40;;;15.90;92.20;;;;;;5011564;28;20072;-79
2023/08/12 00:22:38;;;;;;;6.05;3.67;;;15.90;92.30;;;;;;5010071;28;20449;-79
2023/08/12 00:25:06;;;;;;;5.97;3.90;;;15.90;92.20;;;;;;5019741;28;20553;-79
2023/08/12 00:27:33;;;;;;;6.60;3.58;;;15.80;92.40;;;;;;5009759;28;20050;-79
2023/08/12 00:29:59;;;;;;;5.32;3.63;;;15.80;92.50;;;;;;5027259;28;20120;-79
2023/08/12 00:32:27;;;;;;;7.30;3.78;;;15.80;92.90;;;;;;5009917;28;20049;-79
2023/08/12 00:34:53;;;;;;;6.38;3.88;;;15.80;93.00;;;;;;5011139;28;20041;-79
2023/08/12 00:37:20;;;;;;;6.63;3.60;;;15.80;93.10;;;;;;5009826;28;20045;-79
2023/08/12 00:39:47;;;;;;;7.97;3.90;;;15.80;93.00;;;;;;5020896;28;20402;-80
2023/08/12 00:42:14;;;;;;;6.03;3.65;;;15.80;92.90;;;;;;5026840;28;20084;-80
2023/08/12 00:44:41;;;;;;;8.40;3.83;;;15.80;93.00;;;;;;5029232;28;20100;-80
2023/08/12 00:47:08;;;;;;;6.53;3.92;;;15.80;92.60;;;;;;5027091;28;20509;-80
2023/08/12 00:49:37;;;;;;;5.82;3.78;;;15.90;92.60;;;;;;5029967;28;20045;-80
2023/08/12 00:52:04;;;;;;;7.07;3.85;;;15.90;92.70;;;;;;5003268;28;20494;-80
2023/08/12 00:54:31;;;;;;;5.38;3.53;;;15.90;92.50;;;;;;5028808;28;20133;-80
2023/08/12 00:56:58;;;;;;;8.13;3.90;;;15.90;92.40;;;;;;5011029;28;20053;-80
2023/08/12 00:59:26;;;;;;;8.50;3.67;;;15.90;92.50;;;;;;5010132;28;20410;-80
2023/08/12 01:01:52;;;;;;;5.07;3.72;;;16.00;92.60;;;;;;5010155;28;20129;-80
2023/08/12 01:04:19;;;;;;;7.40;3.88;;;16.00;92.50;;;;;;5029981;28;20052;-80
2023/08/12 01:06:46;;;;;;;7.70;3.40;;;16.00;92.60;;;;;;5010932;28;20540;-80
2023/08/12 01:09:13;;;;;;;7.28;3.78;;;16.00;92.60;;;;;;5007570;28;20564;-80
2023/08/12 01:11:57;;;;;;;9.95;4.38;;;16.00;92.60;;;;;;5029526;28;20164;-80
2023/08/12 01:15:07;;;;;;;5.97;3.50;;;16.10;92.50;;;;;;5009622;28;20144;-80
2023/08/12 01:17:36;;;;;;;5.13;3.67;;;16.10;92.50;;;;;;5015972;28;20050;-80
2023/08/12 01:20:08;;;;;;;12.82;3.92;;;16.10;92.40;;;;;;5024228;28;20537;-80
2023/08/12 01:22:40;;;;;;;7.05;3.88;;;16.10;92.30;;;;;;5010790;28;20073;-80
2023/08/12 01:25:08;;;;;;;6.78;4.30;;;16.10;92.30;;;;;;5011090;28;20534;-79
2023/08/12 01:27:36;;;;;;;9.80;4.05;;;16.20;92.60;;;;;;5008551;28;20050;-80
2023/08/12 01:30:05;;;;;;;7.30;3.80;;;16.20;92.50;;;;;;5029249;28;20108;-80
2023/08/12 01:32:47;;;;;;;8.93;3.80;;;16.20;92.70;;;;;;5007308;28;20156;-80
2023/08/12 01:35:23;;;;;;;5.15;3.28;;;16.20;92.40;;;;;;5029495;28;20045;-79
2023/08/12 01:37:52;;;;;;;5.15;3.70;;;16.20;92.50;;;;;;5010534;28;20060;-86
2023/08/12 01:40:20;;;;;;;5.97;3.63;;;16.30;92.30;;;;;;5029313;28;20059;-86
2023/08/12 01:42:48;;;;;;;9.90;3.85;;;16.30;92.30;;;;;;5028769;28;20077;-86
2023/08/12 01:45:15;;;;;;;8.60;3.72;;;16.30;92.30;;;;;;5011754;28;20494;-86
2023/08/12 01:47:46;;;;;;;4.82;3.60;;;16.40;92.00;;;;;;4999770;28;20076;-86
2023/08/12 01:50:12;;;;;;;6.68;3.80;;;16.40;91.90;;;;;;5012177;28;20048;-86
2023/08/12 01:52:39;;;;;;;3.78;3.10;;;16.40;91.90;;;;;;5011080;28;20061;-87
2023/08/12 01:55:06;;;;;;;6.05;3.35;;;16.50;91.90;;;;;;5028690;28;20068;-86
2023/08/12 01:57:33;;;;;;;5.97;2.95;;;16.50;91.70;;;;;;5008376;28;20119;-86
2023/08/12 02:00:01;;;;;;;3.67;2.83;;;16.50;91.60;;;;;;5005477;28;20535;-86
2023/08/12 02:02:28;;;;;;;4.50;3.28;;;16.60;91.40;;;;;;5004170;28;20077;-86
2023/08/12 02:04:56;;;;;;;4.75;3.50;;;16.60;91.30;;;;;;5011779;28;20629;-85
2023/08/12 02:07:23;;;;;;;7.50;3.45;;;16.60;91.00;;;;;;5011564;28;20091;-86
2023/08/12 02:09:50;;;;;;;5.53;3.00;;;16.60;91.20;;;;;;5011126;28;20124;-86
2023/08/12 02:12:17;;;;;;;11.77;3.00;;;16.70;91.30;;;;;;5011633;28;20142;-85
2023/08/12 02:14:44;;;;;;;9.80;3.33;;;16.70;91.00;;;;;;5009084;28;20431;-86
2023/08/12 02:17:11;;;;;;;6.65;3.22;;;16.70;90.90;;;;;;5013641;28;20403;-86
2023/08/12 02:19:39;;;;;;;5.30;3.50;;;16.70;91.10;;;;;;5027359;28;20073;-87
2023/08/12 02:22:05;;;;;;;9.88;3.20;;;16.70;90.90;;;;;;5011241;28;20049;-86
2023/08/12 02:24:32;;;;;;;9.57;3.22;;;16.70;91.00;;;;;;5011519;28;20081;-85
2023/08/12 02:26:59;;;;;;;6.25;3.40;;;16.70;91.00;;;;;;5023642;28;20510;-86
2023/08/12 02:29:26;;;;;;;3.97;2.80;;;16.70;90.90;;;;;;5013790;28;20132;-85
2023/08/12 02:31:53;;;;;;;6.45;3.40;;;16.70;90.70;;;;;;5025436;28;20041;-84
2023/08/12 02:34:20;;;;;;;4.55;3.10;;;16.70;90.70;;;;;;5029192;28;20052;-85
2023/08/12 02:36:46;;;;;;;3.75;2.80;;;16.80;90.20;;;;;;5025469;28;20046;-85
2023/08/12 02:39:13;;;;;;;4.78;3.58;;;16.80;90.10;;;;;;5022073;28;20144;-85
2023/08/12 02:41:40;;;;;;;4.82;2.90;;;16.80;90.20;;;;;;5006999;28;20056;-85
2023/08/12 02:44:07;;;;;;;5.38;3.25;;;16.80;90.20;;;;;;5020366;28;20053;-85
2023/08/12 02:46:34;;;;;;;6.28;3.00;;;16.80;90.10;;;;;;5018424;28;20083;-85
2023/08/12 02:49:01;;;;;;;6.53;2.78;;;16.80;90.10;;;;;;5028424;28;20077;-85
2023/08/12 02:51:28;;;;;;;6.82;2.90;;;16.70;90.10;;;;;;5010504;28;20059;-86
2023/08/12 02:53:54;;;;;;;9.77;3.53;;;16.70;90.00;;;;;;5029205;28;20077;-85
2023/08/12 02:56:21;;;;;;;6.55;3.08;;;16.70;90.00;;;;;;5010906;28;20081;-85
2023/08/12 02:58:48;;;;;;;7.97;3.38;;;16.70;90.50;;;;;;5005188;28;20049;-85
2023/08/12 03:01:15;;;;;;;6.35;3.45;;;16.60;90.40;;;;;;5010949;28;20049;-85
2023/08/12 03:03:42;;;;;;;6.07;3.60;;;16.60;90.60;;;;;;5011535;28;20051;-85
2023/08/12 03:08:37;;;;;;;4.82;2.90;;;16.50;90.60;;;;;;5029035;28;20046;-80
2023/08/12 03:11:04;;;;;;;9.98;3.55;;;16.50;91.00;;;;;;5032061;28;20471;-80
2023/08/12 03:13:31;;;;;;;8.10;3.83;;;16.50;90.70;;;;;;5032889;28;20144;-80
2023/08/12 03:15:58;;;;;;;13.50;3.85;;;16.50;91.00;;;;;;5032627;28;20132;-80
2023/08/12 03:18:25;;;;;;;6.88;3.47;;;16.40;90.90;;;;;;5014680;28;20060;-80
2023/08/12 03:20:52;;;;;;;6.05;3.83;;;16.30;91.10;;;;;;5041766;28;20386;-84
2023/08/12 03:23:18;;;;;;;4.82;3.65;;;16.30;91.40;;;;;;5032588;28;20064;-84
2023/08/12 03:25:48;;;;;;;6.05;3.70;;;16.30;91.40;;;;;;5030008;28;20133;-85
2023/08/12 03:28:15;;;;;;;5.60;3.42;;;16.30;91.70;;;;;;5022224;28;20072;-85
2023/08/12 03:30:42;;;;;;;5.10;3.53;;;16.30;91.40;;;;;;5022277;28;20494;-85
2023/08/12 03:33:09;;;;;;;5.00;3.70;;;16.20;91.60;;;;;;5032642;28;20096;-85
2023/08/12 03:35:36;;;;;;;4.25;3.03;;;16.30;91.80;;;;;;5021419;28;20080;-85
2023/08/12 03:38:03;;;;;;;7.45;3.38;;;16.20;91.60;;;;;;5021048;28;20140;-85
2023/08/12 03:40:30;;;;;;;5.05;3.22;;;16.30;91.60;;;;;;5008009;28;20092;-86
2023/08/12 03:42:57;;;;;;;5.47;3.25;;;16.30;91.50;;;;;;5015408;28;20053;-85
2023/08/12 03:45:24;;;;;;;8.95;3.72;;;16.30;91.70;;;;;;5031216;28;20053;-85
2023/08/12 03:47:50;;;;;;;7.50;3.40;;;16.30;91.90;;;;;;5031125;28;20049;-84
2023/08/12 03:50:17;;;;;;;3.83;3.13;;;16.30;92.00;;;;;;5014626;28;20053;-85
2023/08/12 03:52:44;;;;;;;6.13;3.50;;;16.30;91.90;;;;;;5019980;28;20049;-85
2023/08/12 03:55:11;;;;;;;4.65;3.60;;;16.30;91.70;;;;;;5026136;28;20058;-84
2023/08/12 03:57:38;;;;;;;6.78;3.25;;;16.40;92.00;;;;;;5034038;28;20175;-85
2023/08/12 04:00:07;;;;;;;5.35;3.78;;;16.30;92.20;;;;;;5024609;28;20502;-84
2023/08/12 04:02:38;;;;;;;5.68;3.53;;;16.40;92.20;;;;;;5013099;28;20064;-83
2023/08/12 04:05:23;;;;;;;7.43;4.03;;;16.30;92.30;;;;;;5028989;28;20053;-79
2023/08/12 04:07:49;;;;;;;9.23;3.78;;;16.40;92.20;;;;;;5030570;28;20095;-80
2023/08/12 04:10:16;;;;;;;5.63;3.50;;;16.40;91.80;;;;;;5013406;28;20046;-80
2023/08/12 04:12:44;;;;;;;5.13;3.30;;;16.40;91.70;;;;;;5027549;28;20049;-80
2023/08/12 04:15:11;;;;;;;5.57;3.53;;;16.50;91.70;;;;;;5013070;28;20053;-80
2023/08/12 04:17:40;;;;;;;6.10;3.85;;;16.50;92.00;;;;;;5012432;28;20049;-80
2023/08/12 04:20:08;;;;;;;6.85;3.80;;;16.50;91.80;;;;;;5011604;28;20137;-80
2023/08/12 04:22:36;;;;;;;7.28;3.40;;;16.60;91.20;;;;;;5027281;28;20490;-80
2023/08/12 04:25:03;;;;;;;6.45;3.38;;;16.60;91.40;;;;;;5010665;28;20111;-80
2023/08/12 04:27:30;;;;;;;5.10;3.53;;;16.70;91.50;;;;;;5021980;23;20139;-85
2023/08/12 04:29:57;;;;;;;5.32;3.28;;;16.70;91.80;;;;;;5058031;28;20040;-85
2023/08/12 04:32:23;;;;;;;9.63;3.60;;;16.70;91.50;;;;;;5054198;28;20133;-84
2023/08/12 04:34:50;;;;;;;8.45;3.60;;;16.70;91.50;;;;;;5066671;28;20045;-85
2023/08/12 04:37:17;;;;;;;4.95;3.10;;;16.80;91.50;;;;;;5069330;28;20082;-85
2023/08/12 04:39:45;;;;;;;4.15;3.28;;;16.90;91.40;;;;;;5039798;28;20052;-85
2023/08/12 04:42:12;;;;;;;7.88;3.50;;;16.90;91.50;;;;;;5049042;28;20048;-85
2023/08/12 04:44:39;;;;;;;4.85;3.15;;;16.90;91.30;;;;;;5069483;28;20144;-86
2023/08/12 04:47:06;;;;;;;4.88;3.45;;;17.00;91.70;;;;;;5044644;28;20102;-84
2023/08/12 04:49:33;;;;;;;5.78;3.30;;;17.00;91.40;;;;;;5056871;28;20105;-84
2023/08/12 04:51:59;;;;;;;4.40;3.60;;;17.10;90.90;;;;;;5064248;28;20040;-84
2023/08/12 04:54:26;;;;;;;4.57;3.30;;;17.20;91.30;;;;;;5052650;28;20151;-84
2023/08/12 04:56:53;;;;;;;4.72;3.40;;;17.20;90.80;;;;;;5055658;28;20148;-85
2023/08/12 04:59:20;;;;;;;5.13;3.75;;;17.30;90.50;;;;;;5067744;28;20055;-85
2023/08/12 05:01:47;;;;;;;4.40;3.15;;;17.30;90.00;;;;;;5057832;28;20472;-84
2023/08/12 05:04:30;;;;;;;3.95;3.13;;;17.40;89.80;;;;;;5071584;28;20048;-87
2023/08/12 05:06:56;;;;;;;8.88;3.35;;;17.50;90.00;;;;;;5055760;28;20156;-85
2023/08/12 05:09:23;;;;;;;7.45;3.47;;;17.50;89.20;;;;;;5068925;28;20049;-85
2023/08/12 05:11:50;;;;;;;8.50;3.42;;;17.60;89.20;;;;;;5065539;28;20044;-85
2023/08/12 05:14:17;;;;;;;5.88;3.53;;;17.60;89.10;;;;;;5053165;28;20484;-84
2023/08/12 05:16:44;;;;;;;6.97;3.42;;;17.70;89.20;;;;;;5070536;28;20052;-84
2023/08/12 05:19:11;;;;;;;4.90;3.17;;;17.80;89.00;;;;;;5049453;28;20071;-81
2023/08/12 05:21:37;;;;;;;12.18;5.00;;;17.80;89.10;;;;;;5065039;28;20048;-77
2023/08/12 05:24:05;;;;;;;16.13;4.82;;;17.90;88.70;;;;;;5051626;28;20495;-78
2023/08/12 05:26:33;;;;;;;8.85;3.58;;;18.00;88.50;;;;;;5049959;28;20084;-75
2023/08/12 05:29:00;;;;;;;5.90;3.45;;;18.00;88.30;;;;;;5059388;28;20752;-76
2023/08/12 05:31:27;;;;;;;9.00;4.15;;;18.20;87.70;;;;;;5060418;28;20056;-78
2023/08/12 05:33:54;;;;;;;14.43;4.20;;;18.30;88.40;;;;;;5069076;28;20062;-80
2023/08/12 05:36:21;;;;;;;6.70;3.60;;;18.50;86.80;;;;;;5069113;28;20049;-84
2023/08/12 05:38:48;;;;;;;4.80;3.33;;;18.70;86.00;;;;;;5044407;28;20153;-78
2023/08/12 05:41:15;;;;;;;6.50;3.15;;;18.80;86.60;;;;;;5043151;28;20532;-77
2023/08/12 05:43:41;;;;;;;6.47;3.08;;;19.00;85.40;;;;;;5050330;28;20143;-78
2023/08/12 05:46:10;;;;;;;7.18;2.97;;;19.10;84.60;;;;;;5058696;28;20164;-75
2023/08/12 05:48:37;;;;;;;5.45;3.53;;;19.20;84.10;;;;;;5044944;28;20053;-75
2023/08/12 05:51:04;;;;;;;3.28;2.90;;;19.30;83.60;;;;;;5040148;28;20106;-75
2023/08/12 05:53:32;;;;;;;6.13;3.00;;;19.40;83.50;;;;;;5060158;28;20041;-85
2023/08/12 05:56:00;;;;;;;4.07;3.28;;;19.40;83.30;;;;;;5070015;28;20048;-81
2023/08/12 05:58:26;;;;;;;7.43;3.67;;;19.50;82.90;;;;;;5054184;28;20069;-80
2023/08/12 06:00:53;;;;;;;7.20;3.22;;;19.60;83.10;;;;;;5047720;28;20682;-79
2023/08/12 06:03:20;;;;;;;9.38;3.08;;;19.80;82.20;;;;;;5067749;28;20445;-82
2023/08/12 06:05:47;;;;;;;6.93;3.60;;;19.90;82.40;;;;;;5070134;28;20045;-85
2023/08/12 06:08:15;;;;;;;6.25;3.47;;;20.00;81.70;;;;;;5048172;28;20076;-84
2023/08/12 06:10:42;;;;;;;13.88;4.15;;;20.00;81.50;;;;;;5057687;28;20041;-82
2023/08/12 06:13:08;;;;;;;15.23;3.90;;;20.10;81.50;;;;;;5054528;28;20056;-81
2023/08/12 06:15:36;;;;;;;4.65;3.03;;;20.20;81.30;;;;;;5034035;28;20048;-86
2023/08/12 06:18:03;;;;;;;12.77;3.67;;;20.30;81.40;;;;;;5065471;28;20174;-84
2023/08/12 06:20:30;;;;;;;5.25;3.25;;;20.40;80.40;;;;;;5040891;28;20505;-79
2023/08/12 06:22:57;;;;;;;10.00;3.47;;;20.50;80.80;;;;;;5047301;28;20052;-77
2023/08/12 06:25:23;;;;;;;7.40;2.75;;;20.60;79.70;;;;;;5043668;28;20115;-77
2023/08/12 06:27:50;;;;;;;3.78;2.85;;;20.70;78.80;;;;;;5068040;28;20628;-77
2023/08/12 06:30:17;;;;;;;6.10;3.13;;;20.80;79.50;;;;;;5037258;28;20129;-77
2023/08/12 06:32:44;;;;;;;7.15;3.20;;;20.90;79.60;;;;;;5052138;28;20508;-77
2023/08/12 06:35:11;;;;;;;7.90;3.17;;;21.00;80.40;;;;;;5052721;28;20120;-77
2023/08/12 06:37:37;;;;;;;3.95;2.47;;;21.10;79.40;;;;;;5052475;28;20145;-77
2023/08/12 06:40:05;;;;;;;4.45;2.78;;;21.20;78.30;;;;;;5053516;28;20072;-77
2023/08/12 06:42:32;;;;;;;8.93;3.28;;;21.40;78.40;;;;;;5059634;28;20128;-77
2023/08/12 06:45:00;;;;;;;9.38;3.40;;;21.40;78.50;;;;;;5038614;28;20152;-77
2023/08/12 06:47:27;;;;;;;10.52;3.50;;;21.50;77.60;;;;;;5040863;28;20080;-77
2023/08/12 06:49:55;;;;;;;4.70;3.10;;;21.60;77.60;;;;;;5059611;28;20517;-77
2023/08/12 06:52:22;;;;;;;7.28;3.05;;;21.70;77.50;;;;;;5059321;28;20106;-77
2023/08/12 06:54:49;;;;;;;7.90;2.92;;;21.90;78.20;;;;;;5035104;28;20044;-77
2023/08/12 06:57:16;;;;;;;13.73;2.90;;;22.50;77.70;;;;;;5058448;28;20445;-77
2023/08/12 06:59:43;;;;;;;10.82;3.20;;;23.10;75.20;;;;;;5049501;28;20066;-77
2023/08/12 07:02:09;;;;;;;5.53;2.55;;;23.50;74.30;;;;;;5053658;28;20139;-77
2023/08/12 07:04:37;;;;;;;8.70;2.58;;;23.80;73.60;;;;;;5051898;28;20057;-77
2023/08/12 07:07:04;;;;;;;6.28;3.35;;;24.10;70.40;;;;;;5053935;28;20063;-77
2023/08/12 07:09:30;;;;;;;5.28;3.13;;;24.20;69.90;;;;;;5056313;28;20049;-77
2023/08/12 07:11:57;;;;;;;10.32;3.30;;;24.30;70.90;;;;;;5038601;28;20482;-77
2023/08/12 07:14:25;;;;;;;4.05;2.40;;;24.40;69.70;;;;;;5066464;28;20061;-77
2023/08/12 07:16:52;;;;;;;3.97;2.85;;;24.60;68.90;;;;;;5050250;28;20169;-77
2023/08/12 07:19:19;;;;;;;4.60;3.08;;;24.50;68.20;;;;;;5054124;28;20212;-75
2023/08/12 07:21:46;;;;;;;8.75;2.70;;;24.40;68.80;;;;;;5055037;28;20048;-75
2023/08/12 07:24:12;;;;;;;3.72;2.63;;;24.40;69.50;;;;;;5062312;28;20493;-75
2023/08/12 07:26:39;;;;;;;11.05;2.42;;;24.30;68.60;;;;;;5044881;28;20058;-75
2023/08/12 07:29:06;;;;;;;9.57;2.90;;;24.30;69.50;;;;;;5053348;28;20122;-75
2023/08/12 07:31:33;;;;;;;7.22;2.75;;;24.30;69.10;;;;;;5040230;28;20080;-76
2023/08/12 07:34:00;;;;;;;5.07;2.75;;;24.40;70.10;;;;;;5036492;28;20053;-76
2023/08/12 07:36:27;;;;;;;9.10;3.03;;;24.60;69.10;;;;;;5058014;28;20634;-76
2023/08/12 07:38:54;;;;;;;9.82;2.88;;;24.40;68.80;;;;;;5062466;28;20076;-75
2023/08/12 07:41:21;;;;;;;4.55;2.78;;;24.10;72.20;;;;;;5068311;28;20094;-75
2023/08/12 07:43:47;;;;;;;6.28;3.67;;;24.50;71.10;;;;;;5055500;28;20132;-76
2023/08/12 07:46:14;;;;;;;4.85;3.45;;;24.90;69.30;;;;;;5064730;28;20132;-75
2023/08/12 07:48:41;;;;;;;10.80;2.80;;;25.20;68.80;;;;;;5039332;28;20099;-75
2023/08/12 07:51:09;;;;;;;6.85;3.20;;;25.30;69.00;;;;;;5042259;28;20183;-75
2023/08/12 07:53:35;;;;;;;4.40;2.58;;;25.40;68.50;;;;;;5038936;28;20061;-75
2023/08/12 07:56:02;;;;;;;6.68;3.10;;;25.90;69.10;;;;;;5066382;28;20139;-75
2023/08/12 07:58:30;;;;;;;5.40;2.67;;;26.50;66.80;;;;;;5049008;28;20132;-75
2023/08/12 08:00:57;;;;;;;7.00;3.17;;;26.70;65.80;;;;;;5051671;28;20110;-75
2023/08/12 08:03:25;;;;;;;5.57;3.00;;;26.50;64.60;;;;;;5046565;28;20155;-76
2023/08/12 08:05:53;;;;;;;7.40;3.30;;;26.70;63.90;;;;;;5039841;28;20474;-76
2023/08/12 08:08:20;;;;;;;8.10;2.63;;;27.00;64.10;;;;;;5057743;28;20055;-75
2023/08/12 08:10:47;;;;;;;7.45;3.25;;;27.30;63.20;;;;;;5071672;28;20056;-75
2023/08/12 08:13:14;;;;;;;4.85;3.10;;;27.30;61.90;;;;;;5068150;28;20059;-76
2023/08/12 08:15:40;;;;;;;8.82;3.58;;;27.10;61.50;;;;;;5059145;28;20124;-75
2023/08/12 08:18:07;;;;;;;13.27;3.78;;;27.10;63.00;;;;;;5068433;28;20048;-76
2023/08/12 08:20:35;;;;;;;11.10;4.18;;;27.30;63.80;;;;;;5065655;28;20138;-76
2023/08/12 08:23:02;;;;;;;10.30;3.08;;;27.50;62.80;;;;;;5062976;28;20056;-76
2023/08/12 08:25:28;;;;;;;6.47;3.20;;;27.70;62.20;;;;;;5060193;28;20161;-76
2023/08/12 08:27:55;;;;;;;7.25;3.40;;;27.90;61.20;;;;;;5067790;28;20088;-76
2023/08/12 08:30:22;;;;;;;10.95;3.42;;;28.00;62.10;;;;;;5055950;28;20534;-76
2023/08/12 08:32:49;;;;;;;4.97;2.88;;;28.20;61.30;;;;;;5069436;28;20124;-76
2023/08/12 08:35:17;;;;;;;8.80;2.80;;;28.60;60.60;;;;;;5043927;28;20070;-76
2023/08/12 08:37:44;;;;;;;7.32;3.15;;;28.90;59.60;;;;;;5056813;28;20097;-75
2023/08/12 08:40:11;;;;;;;8.02;3.33;;;29.00;58.60;;;;;;5053642;28;20724;-75
2023/08/12 08:42:40;;;;;;;11.57;3.22;;;28.90;57.60;;;;;;5049198;28;20050;-75
2023/08/12 08:45:13;;;;;;;6.88;2.95;;;28.70;58.70;;;;;;5034916;28;20059;-75
2023/08/12 08:47:41;;;;;;;7.95;3.00;;;28.50;59.40;;;;;;5058625;28;20814;-75
2023/08/12 08:50:09;;;;;;;5.80;2.83;;;28.40;58.30;;;;;;5042324;28;20132;-75
2023/08/12 08:52:39;;;;;;;6.35;2.42;;;28.30;60.40;;;;;;5039197;28;20048;-75
2023/08/12 08:55:07;;;;;;;3.67;2.85;;;28.20;60.50;;;;;;5053312;28;20048;-75
2023/08/12 08:57:34;;;;;;;4.22;2.78;;;28.40;60.20;;;;;;5071844;28;20221;-75
2023/08/12 09:00:15;;;;;;;10.05;3.40;;;28.60;60.00;;;;;;5047491;28;20056;-75
2023/08/12 09:02:49;;;;;;;4.25;2.72;;;28.60;60.00;;;;;;5042711;28;20572;-75
2023/08/12 09:05:16;;;;;;;5.03;2.75;;;28.40;58.00;;;;;;5065756;28;20121;-75
2023/08/12 09:07:44;;;;;;;7.35;2.83;;;28.50;60.40;;;;;;5029066;28;20049;-75
2023/08/12 09:10:12;;;;;;;5.25;2.83;;;28.60;60.00;;;;;;5063726;28;20159;-75
2023/08/12 09:12:42;;;;;;;5.35;2.88;;;28.80;59.70;;;;;;5032674;28;20397;-75
2023/08/12 09:15:10;;;;;;;6.63;3.40;;;29.40;59.60;;;;;;5063489;28;20666;-76
2023/08/12 09:17:37;;;;;;;4.18;2.60;;;30.10;58.70;;;;;;5033780;28;20126;-76
2023/08/12 09:20:11;;;;;;;6.53;2.60;;;30.40;57.50;;;;;;5042940;28;20088;-75
2023/08/12 09:22:41;;;;;;;6.23;2.70;;;30.70;55.80;;;;;;5063742;28;20679;-76
2023/08/12 09:25:09;;;;;;;7.53;3.33;;;30.70;56.70;;;;;;5030627;28;20289;-76
2023/08/12 09:27:40;;;;;;;6.80;2.83;;;31.00;56.50;;;;;;5042663;28;20060;-76
2023/08/12 09:30:07;;;;;;;6.30;2.75;;;31.40;55.20;;;;;;5049581;28;20132;-76
2023/08/12 09:32:35;;;;;;;7.13;3.03;;;32.00;53.50;;;;;;5051311;28;20436;-76
2023/08/12 09:35:03;;;;;;;7.68;2.90;;;32.30;54.10;;;;;;5063929;28;20071;-76
2023/08/12 09:37:31;;;;;;;3.83;2.53;;;32.30;52.40;;;;;;5051535;28;20049;-76
2023/08/12 09:39:58;;;;;;;8.35;2.97;;;32.50;52.80;;;;;;5040895;28;20153;-76
2023/08/12 09:42:25;;;;;;;7.90;3.45;;;32.80;52.40;;;;;;5036286;28;20067;-76
2023/08/12 09:44:52;;;;;;;8.93;3.50;;;32.70;51.30;;;;;;5060716;28;20136;-76
2023/08/12 09:47:19;;;;;;;5.88;2.95;;;32.50;52.20;;;;;;5054807;28;20056;-76
2023/08/12 09:49:46;;;;;;;7.35;3.53;;;32.60;54.20;;;;;;5028734;28;20057;-76
2023/08/12 09:52:13;;;;;;;5.32;2.60;;;32.80;52.70;;;;;;5036769;28;20053;-76
2023/08/12 09:54:41;;;;;;;7.45;2.63;;;32.90;52.00;;;;;;5056688;28;20102;-75
2023/08/12 09:57:11;;;;;;;6.88;3.00;;;33.10;51.70;;;;;;5054895;28;20044;-76
2023/08/12 09:59:40;;;;;;;8.18;3.83;;;32.60;52.50;;;;;;5050213;28;20056;-76
2023/08/12 10:02:17;;;;;;;8.13;3.20;;;32.20;52.20;;;;;;5049939;28;20084;-76
2023/08/12 10:04:45;;;;;;;7.93;3.13;;;31.70;52.60;;;;;;5034532;28;20049;-76
2023/08/12 10:07:15;;;;;;;7.93;4.30;;;31.20;54.50;;;;;;5061502;28;20575;-76
2023/08/12 10:09:44;;;;;;;5.53;2.75;;;31.10;54.70;;;;;;5055029;28;20080;-76
2023/08/12 10:12:12;;;;;;;6.45;2.53;;;31.20;55.60;;;;;;5064191;28;20045;-76
2023/08/12 10:14:43;;;;;;;4.25;2.70;;;31.80;55.30;;;;;;5068269;28;20078;-76
2023/08/12 10:17:11;;;;;;;7.07;3.08;;;32.00;54.90;;;;;;5034644;28;20127;-76
2023/08/12 10:19:44;;;;;;;3.92;2.67;;;32.40;53.30;;;;;;5054416;28;20048;-76
2023/08/12 10:22:11;;;;;;;6.80;3.25;;;32.30;52.30;;;;;;5038581;28;20161;-76
2023/08/12 10:24:42;;;;;;;4.32;3.00;;;32.20;52.40;;;;;;5073914;28;20075;-76
2023/08/12 10:27:11;;;;;;;6.13;3.30;;;32.00;53.30;;;;;;5069188;28;20059;-76
2023/08/12 10:29:38;;;;;;;9.43;3.72;;;31.70;54.00;;;;;;5066568;28;20056;-76
2023/08/12 10:32:05;;;;;;;6.25;3.53;;;31.20;53.90;;;;;;5053285;28;20133;-76
2023/08/12 10:34:32;;;;;;;6.57;3.17;;;30.80;54.30;;;;;;5054439;28;20055;-76
2023/08/12 10:37:02;;;;;;;6.75;3.38;;;30.50;53.80;;;;;;5057372;28;20054;-76
2023/08/12 10:39:34;;;;;;;8.45;3.33;;;30.20;55.70;;;;;;5041106;28;20055;-76
2023/08/12 10:42:01;;;;;;;5.63;3.53;;;30.00;56.60;;;;;;5051324;28;20052;-76
2023/08/12 10:44:51;;;;;;;6.95;3.75;;;30.00;57.50;;;;;;5066807;28;20049;-76
2023/08/12 10:47:18;;;;;;;7.13;3.60;;;30.30;56.70;;;;;;5044169;28;20049;-76
2023/08/12 10:49:49;;;;;;;7.65;3.90;;;30.50;55.70;;;;;;5047522;28;20736;-76
2023/08/12 10:52:30;;;;;;;7.57;3.28;;;30.20;55.90;;;;;;5037740;28;20057;-76
2023/08/12 10:55:24;;;;;;;5.78;3.70;;;30.20;57.00;;;;;;5059693;28;20441;-78
2023/08/12 10:57:53;;;;;;;10.15;4.00;;;30.50;58.10;;;;;;5047390;28;20049;-78
2023/08/12 11:00:28;;;;;;;4.95;3.33;;;31.50;56.30;;;;;;5048484;28;20110;-78
2023/08/12 11:02:56;;;;;;;5.18;2.80;;;32.10;54.00;;;;;;5048831;28;20045;-78
2023/08/12 11:05:25;;;;;;;8.43;3.45;;;31.60;53.40;;;;;;5055349;28;20045;-77
2023/08/12 11:08:05;;;;;;;3.92;3.13;;;31.10;54.30;;;;;;5040162;28;20821;-77
2023/08/12 11:10:34;;;;;;;4.15;3.15;;;31.20;54.80;;;;;;5035056;28;20049;-77
2023/08/12 11:13:03;;;;;;;7.55;3.47;;;31.30;54.70;;;;;;5041700;28;20573;-77
2023/08/12 11:15:34;;;;;;;6.47;3.28;;;31.40;55.10;;;;;;5031889;28;20053;-77
2023/08/12 11:18:05;;;;;;;4.68;2.83;;;31.90;55.70;;;;;;5055513;28;20063;-77
2023/08/12 11:20:33;;;;;;;7.88;3.22;;;32.70;53.00;;;;;;5045330;28;20152;-77
2023/08/12 11:23:01;;;;;;;4.72;3.08;;;33.40;51.30;;;;;;5040726;22;20184;-82
2023/08/12 11:25:29;;;;;;;7.53;2.90;;;34.20;51.40;;;;;;5010090;28;20679;-82
2023/08/12 11:27:57;;;;;;;6.28;2.85;;;35.10;49.90;;;;;;5011746;28;20496;-82
2023/08/12 11:30:24;;;;;;;8.93;3.40;;;35.90;50.10;;;;;;5032234;28;20104;-82
2023/08/12 11:32:53;;;;;;;5.53;2.88;;;36.90;47.70;;;;;;5020556;22;20049;-78
2023/08/12 11:35:21;;;;;;;4.78;3.00;;;37.60;46.80;;;;;;5056974;28;20071;-78
2023/08/12 11:37:57;;;;;;;9.32;2.83;;;38.60;46.30;;;;;;5052253;28;20129;-78
2023/08/12 11:40:26;;;;;;;6.75;3.05;;;38.90;43.00;;;;;;5065233;28;20487;-78
2023/08/12 11:42:53;;;;;;;11.88;3.38;;;39.20;44.90;;;;;;5060750;28;20093;-78
2023/08/12 11:45:22;;;;;;;5.28;3.63;;;39.20;41.80;;;;;;5084694;28;20105;-78
2023/08/12 11:47:52;;;;;;;6.32;2.83;;;37.50;42.90;;;;;;5063722;28;20040;-78
2023/08/12 11:50:26;;;;;;;4.90;2.90;;;36.40;44.90;;;;;;5074543;28;20124;-77
2023/08/12 11:52:55;;;;;;;5.60;3.60;;;35.60;45.60;;;;;;5054980;28;20052;-77
2023/08/12 11:55:22;;;;;;;9.27;3.55;;;34.90;47.40;;;;;;5074550;28;20158;-77
2023/08/12 11:57:51;;;;;;;4.20;3.47;;;34.40;49.80;;;;;;5078731;28;20125;-77
2023/08/12 12:00:18;;;;;;;17.08;3.38;;;34.60;49.70;;;;;;5083192;28;20177;-77
2023/08/12 12:02:51;;;;;;;10.55;3.17;;;34.90;50.20;;;;;;5064649;28;20052;-77
2023/08/12 12:05:21;;;;;;;6.93;3.30;;;35.20;47.60;;;;;;5059627;28;20226;-77
2023/08/12 12:07:51;;;;;;;3.63;2.90;;;35.20;48.40;;;;;;5064974;28;20565;-77
2023/08/12 12:10:29;;;;;;;6.68;3.65;;;34.60;48.80;;;;;;5085909;28;20666;-77
2023/08/12 12:13:02;;;;;;;5.30;3.55;;;34.20;48.50;;;;;;5077258;28;20048;-77
2023/08/12 12:15:29;;;;;;;7.90;3.60;;;33.90;50.70;;;;;;5081752;28;20126;-77
2023/08/12 12:17:56;;;;;;;10.23;3.40;;;33.70;51.40;;;;;;5063957;28;20079;-77
2023/08/12 12:20:22;;;;;;;10.70;4.35;;;33.80;51.80;;;;;;5064754;28;20051;-77
2023/08/12 12:22:49;;;;;;;7.22;3.00;;;34.40;50.60;;;;;;5063275;28;20137;-77
2023/08/12 12:25:20;;;;;;;7.47;3.15;;;34.70;49.80;;;;;;5077614;28;20472;-77
2023/08/12 12:27:47;;;;;;;4.90;3.03;;;35.20;49.40;;;;;;5082797;28;20056;-77
2023/08/12 12:30:15;;;;;;;4.00;2.65;;;35.60;47.90;;;;;;5074306;28;20413;-77
2023/08/12 12:32:43;;;;;;;9.48;3.08;;;36.10;47.30;;;;;;5086619;22;20076;-82
2023/08/12 12:35:11;;;;;;;7.38;2.90;;;36.20;47.60;;;;;;5109610;28;20048;-82
2023/08/12 12:37:38;;;;;;;8.95;2.92;;;36.30;46.10;;;;;;5104644;28;20039;-83
2023/08/12 12:40:05;;;;;;;4.75;3.08;;;36.60;45.90;;;;;;5105813;28;20128;-83
2023/08/12 12:42:33;;;;;;;4.50;2.83;;;36.70;46.60;;;;;;5084038;28;20051;-82
2023/08/12 12:45:00;;;;;;;5.90;2.97;;;36.60;46.60;;;;;;5105812;28;20044;-82
2023/08/12 12:47:27;;;;;;;4.90;3.00;;;36.70;46.80;;;;;;5097031;28;20109;-83
2023/08/12 12:49:54;;;;;;;5.10;3.05;;;36.90;46.00;;;;;;5077572;28;20822;-83
2023/08/12 12:52:21;;;;;;;5.78;3.05;;;36.40;45.90;;;;;;5082146;28;20077;-80